Time;durP1;ratioP1;P1;durP2;ratioP2;P2;SDS_P1;SDS_P2;PMS_P1;PMS_P2;Temp;Humidity;BMP_temperature;BMP_pressure;BME280_temperature;BME280_humidity;BME280_pressure;Samples;Min_cycle;Max_cycle;Signal;HPM_P1;HPM_P2
2022/09/10 00:01:22;;;;;;;2.75;0.75;;;14.60;99.90;;;;;;5022263;28;20393;-82
2022/09/10 00:03:48;;;;;;;3.08;0.90;;;14.60;99.90;;;;;;5023515;28;20417;-76
2022/09/10 00:06:16;;;;;;;1.67;1.15;;;14.60;99.90;;;;;;5026845;28;20040;-82
2022/09/10 00:08:43;;;;;;;4.32;1.25;;;14.70;99.90;;;;;;5059503;28;20474;-77
2022/09/10 00:11:10;;;;;;;2.33;1.00;;;14.60;99.90;;;;;;5024768;28;20497;-84
2022/09/10 00:13:38;;;;;;;3.50;0.70;;;14.60;99.90;;;;;;5027021;28;20490;-77
2022/09/10 00:16:07;;;;;;;2.38;0.60;;;14.60;99.90;;;;;;5026916;28;20071;-79
2022/09/10 00:18:33;;;;;;;2.33;0.60;;;14.70;99.90;;;;;;5024674;28;20037;-77
2022/09/10 00:21:01;;;;;;;2.17;0.50;;;14.70;99.90;;;;;;5025568;28;20037;-78
2022/09/10 00:23:27;;;;;;;2.53;0.50;;;14.70;99.90;;;;;;5034151;28;20486;-84
2022/09/10 00:25:55;;;;;;;1.90;0.60;;;14.70;99.90;;;;;;5028814;28;20418;-76
2022/09/10 00:28:23;;;;;;;2.28;0.65;;;14.70;99.90;;;;;;5027314;28;20701;-76
2022/09/10 00:30:50;;;;;;;3.08;0.50;;;14.70;99.90;;;;;;5026860;28;20032;-77
2022/09/10 00:33:17;;;;;;;2.63;0.50;;;14.60;99.90;;;;;;5061058;28;20021;-76
2022/09/10 00:35:43;;;;;;;3.63;0.80;;;14.60;99.90;;;;;;5028684;28;20025;-76
2022/09/10 00:38:11;;;;;;;2.40;0.88;;;14.60;99.90;;;;;;5041668;28;20038;-76
2022/09/10 00:40:39;;;;;;;1.98;0.50;;;14.70;99.90;;;;;;5024491;28;20099;-77
2022/09/10 00:43:12;;;;;;;2.20;0.70;;;14.70;99.90;;;;;;5025363;28;20029;-75
2022/09/10 00:45:38;;;;;;;1.88;0.50;;;14.70;99.90;;;;;;5027528;28;20105;-76
2022/09/10 00:48:13;;;;;;;2.65;1.33;;;14.80;99.90;;;;;;5029155;28;20553;-76
2022/09/10 00:50:41;;;;;;;1.70;0.80;;;14.80;99.90;;;;;;5026271;28;20040;-78
2022/09/10 00:53:12;;;;;;;2.78;1.27;;;14.80;99.90;;;;;;5042677;28;20030;-78
2022/09/10 00:55:41;;;;;;;1.60;0.57;;;14.80;99.90;;;;;;5027063;28;20026;-82
2022/09/10 00:58:10;;;;;;;3.30;0.80;;;14.80;99.90;;;;;;5027192;28;20060;-80
2022/09/10 01:00:36;;;;;;;3.38;0.80;;;14.80;99.90;;;;;;5025944;28;20116;-75
2022/09/10 01:03:05;;;;;;;4.13;0.70;;;14.80;99.90;;;;;;5027603;28;20442;-82
2022/09/10 01:05:31;;;;;;;2.55;0.80;;;14.80;99.90;;;;;;5024878;28;20485;-75
2022/09/10 01:07:57;;;;;;;3.50;0.88;;;14.90;99.90;;;;;;5024748;28;20549;-78
2022/09/10 01:10:30;;;;;;;2.15;0.98;;;14.90;99.90;;;;;;5024714;28;20036;-75
2022/09/10 01:13:38;;;;;;;3.22;0.90;;;14.90;99.90;;;;;;5026363;28;20030;-79
2022/09/10 01:16:10;;;;;;;2.33;0.82;;;14.90;99.90;;;;;;5026392;28;20044;-81
2022/09/10 01:18:44;;;;;;;3.13;1.17;;;14.90;99.90;;;;;;5040533;28;20903;-76
2022/09/10 01:21:15;;;;;;;3.85;1.75;;;14.90;99.90;;;;;;5039279;28;20025;-77
2022/09/10 01:23:59;;;;;;;6.50;2.28;;;15.00;99.90;;;;;;5025786;28;20279;-77
2022/09/10 01:26:50;;;;;;;2.40;1.60;;;15.00;99.90;;;;;;5021965;28;20025;-76
2022/09/10 01:29:32;;;;;;;4.32;1.73;;;15.00;99.90;;;;;;5024463;28;20374;-80
2022/09/10 01:32:22;;;;;;;3.95;1.60;;;15.00;99.90;;;;;;5023727;28;20025;-76
2022/09/10 01:35:14;;;;;;;6.40;1.65;;;15.00;99.90;;;;;;5058269;28;20029;-81
2022/09/10 01:37:52;;;;;;;3.70;1.92;;;15.00;99.90;;;;;;5026684;28;20443;-78
2022/09/10 01:40:18;;;;;;;4.63;2.42;;;15.10;99.90;;;;;;5024076;28;20099;-78
2022/09/10 01:42:44;;;;;;;3.20;2.20;;;15.00;99.90;;;;;;5011516;28;20029;-77
2022/09/10 01:45:14;;;;;;;3.40;1.55;;;15.00;99.90;;;;;;5023559;28;20033;-75
2022/09/10 01:47:55;;;;;;;3.17;1.42;;;15.10;99.90;;;;;;5024995;28;20123;-76
2022/09/10 01:50:33;;;;;;;2.28;1.60;;;15.10;99.90;;;;;;5026177;28;20033;-76
2022/09/10 01:53:18;;;;;;;2.38;1.40;;;15.10;99.90;;;;;;5024865;28;20018;-76
2022/09/10 01:56:05;;;;;;;4.85;2.10;;;15.00;99.90;;;;;;5022334;28;20037;-74
2022/09/10 01:58:41;;;;;;;3.85;2.13;;;15.10;99.90;;;;;;5023053;28;20032;-76
2022/09/10 02:01:24;;;;;;;6.00;2.40;;;15.10;99.90;;;;;;5023980;28;20033;-76
2022/09/10 02:03:55;;;;;;;4.38;2.08;;;15.10;99.90;;;;;;5023074;28;20041;-81
2022/09/10 02:06:29;;;;;;;3.97;2.22;;;15.10;99.90;;;;;;5016055;28;20029;-79
2022/09/10 02:08:58;;;;;;;3.47;1.73;;;15.10;99.90;;;;;;5056913;28;20134;-75
2022/09/10 02:11:25;;;;;;;3.30;1.90;;;15.10;99.90;;;;;;5025357;28;20466;-76
2022/09/10 02:13:52;;;;;;;6.55;2.35;;;15.10;99.90;;;;;;5024293;28;20028;-85
2022/09/10 02:16:36;;;;;;;3.35;2.00;;;15.10;99.90;;;;;;5023642;28;20041;-75
2022/09/10 02:19:03;;;;;;;2.90;1.42;;;15.20;99.90;;;;;;5022324;28;20041;-79
2022/09/10 02:21:30;;;;;;;3.63;1.83;;;15.20;99.90;;;;;;5057943;28;20140;-84
2022/09/10 02:23:59;;;;;;;5.70;2.83;;;15.10;99.90;;;;;;5022681;28;20492;-77
2022/09/10 02:26:26;;;;;;;3.42;1.83;;;15.10;99.90;;;;;;5024448;28;20480;-76
2022/09/10 02:28:53;;;;;;;3.22;1.65;;;15.10;99.90;;;;;;5058284;28;20049;-77
2022/09/10 02:31:19;;;;;;;3.13;1.80;;;15.10;99.90;;;;;;5019035;28;20118;-83
2022/09/10 02:33:45;;;;;;;2.25;1.20;;;15.10;99.90;;;;;;5024015;28;20122;-79
2022/09/10 02:36:11;;;;;;;4.45;2.40;;;15.20;99.90;;;;;;5009093;28;20024;-76
2022/09/10 02:38:37;;;;;;;4.80;2.13;;;15.10;99.90;;;;;;5027236;28;20042;-77
2022/09/10 02:41:03;;;;;;;4.00;1.95;;;15.10;99.90;;;;;;5022748;28;20537;-79
2022/09/10 02:43:30;;;;;;;2.88;1.55;;;15.10;99.90;;;;;;5022566;28;20035;-76
2022/09/10 02:45:58;;;;;;;5.30;2.08;;;15.10;99.90;;;;;;5017655;28;20126;-80
2022/09/10 02:48:25;;;;;;;4.35;2.20;;;15.20;99.90;;;;;;5024457;28;20026;-77
2022/09/10 02:50:55;;;;;;;3.20;1.90;;;15.20;99.90;;;;;;5024715;28;20021;-80
2022/09/10 02:53:21;;;;;;;3.92;2.03;;;15.10;99.90;;;;;;5057777;28;20026;-76
2022/09/10 02:55:49;;;;;;;7.70;2.13;;;15.20;99.90;;;;;;5022869;28;20107;-81
2022/09/10 02:58:15;;;;;;;4.15;2.22;;;15.10;99.90;;;;;;5024713;28;20120;-82
2022/09/10 03:00:41;;;;;;;3.92;2.45;;;15.20;99.90;;;;;;5023795;28;20479;-77
2022/09/10 03:03:07;;;;;;;4.18;1.85;;;15.20;99.90;;;;;;5055238;28;20030;-78
2022/09/10 03:05:37;;;;;;;6.03;2.55;;;15.20;99.90;;;;;;5026534;28;20398;-79
2022/09/10 03:08:06;;;;;;;4.95;3.13;;;15.20;99.90;;;;;;5026941;28;20378;-76
2022/09/10 03:10:32;;;;;;;;;;;15.20;99.90;;;;;;5056734;28;20252;-75
2022/09/10 03:12:59;;;;;;;4.35;1.90;;;15.20;99.90;;;;;;5023964;28;20609;-79
2022/09/10 03:15:25;;;;;;;4.20;2.35;;;15.20;99.90;;;;;;5022612;28;20030;-76
2022/09/10 03:17:51;;;;;;;3.72;2.28;;;15.20;99.90;;;;;;5023388;28;20037;-79
2022/09/10 03:20:18;;;;;;;3.05;1.65;;;15.20;99.90;;;;;;5023220;28;20534;-77
2022/09/10 03:22:44;;;;;;;3.22;2.53;;;15.20;99.90;;;;;;5025767;28;20116;-76
2022/09/10 03:25:13;;;;;;;6.85;2.60;;;15.20;99.90;;;;;;5057772;28;20032;-81
2022/09/10 03:27:39;;;;;;;4.75;2.50;;;15.20;99.90;;;;;;5025481;28;20033;-77
2022/09/10 03:30:07;;;;;;;6.05;2.58;;;15.20;99.90;;;;;;5023013;28;20032;-81
2022/09/10 03:32:33;;;;;;;4.90;2.13;;;15.20;99.90;;;;;;5021845;28;20045;-75
2022/09/10 03:34:59;;;;;;;3.70;1.90;;;15.20;99.90;;;;;;5058274;28;20061;-76
2022/09/10 03:37:25;;;;;;;3.72;2.08;;;15.30;99.90;;;;;;5020573;28;20036;-83
2022/09/10 03:39:51;;;;;;;4.63;2.10;;;15.30;99.90;;;;;;5057173;28;20371;-76
2022/09/10 03:42:17;;;;;;;3.35;1.95;;;15.30;99.90;;;;;;5021594;28;20065;-76
2022/09/10 03:44:43;;;;;;;5.00;2.53;;;15.30;99.90;;;;;;5021187;28;20034;-76
2022/09/10 03:47:10;;;;;;;4.38;2.60;;;15.30;99.90;;;;;;5022276;28;20022;-77
2022/09/10 03:49:36;;;;;;;4.25;2.75;;;15.30;99.90;;;;;;5020877;28;20104;-75
2022/09/10 03:52:02;;;;;;;3.30;2.58;;;15.30;99.90;;;;;;5056298;28;20124;-79
2022/09/10 03:54:30;;;;;;;4.68;3.03;;;15.30;99.90;;;;;;5055684;28;20018;-75
2022/09/10 03:56:56;;;;;;;5.15;3.00;;;15.30;99.90;;;;;;5006047;28;20450;-84
2022/09/10 03:59:21;;;;;;;3.33;2.47;;;15.30;99.90;;;;;;5025271;28;20124;-82
2022/09/10 04:01:47;;;;;;;4.20;2.00;;;15.40;99.90;;;;;;5023266;28;20060;-76
2022/09/10 04:04:13;;;;;;;4.78;2.15;;;15.30;99.90;;;;;;5021650;28;20030;-78
2022/09/10 04:06:39;;;;;;;2.95;1.80;;;15.30;99.90;;;;;;5024875;28;20029;-82
2022/09/10 04:09:05;;;;;;;4.85;2.65;;;15.40;99.90;;;;;;5020919;28;20029;-83
2022/09/10 04:11:32;;;;;;;5.10;2.30;;;15.30;99.90;;;;;;5021805;28;20033;-77
2022/09/10 04:13:57;;;;;;;3.55;2.22;;;15.40;99.90;;;;;;5056775;28;20363;-79
2022/09/10 04:16:24;;;;;;;4.05;2.25;;;15.40;99.90;;;;;;5021160;28;20021;-80
2022/09/10 04:18:50;;;;;;;3.45;2.10;;;15.40;99.90;;;;;;5004221;28;20049;-79
2022/09/10 04:21:16;;;;;;;3.72;1.92;;;15.40;99.90;;;;;;5017612;28;20026;-75
2022/09/10 04:23:42;;;;;;;3.80;2.28;;;15.40;99.90;;;;;;5020016;28;20029;-75
2022/09/10 04:26:14;;;;;;;6.32;3.40;;;15.40;99.90;;;;;;5021951;28;20366;-76
2022/09/10 04:28:40;;;;;;;6.38;3.00;;;15.40;99.90;;;;;;5054246;28;20033;-77
2022/09/10 04:31:06;;;;;;;3.97;2.00;;;15.40;99.90;;;;;;5021250;28;20017;-79
2022/09/10 04:33:32;;;;;;;3.67;3.00;;;15.40;99.90;;;;;;5022177;28;20346;-79
2022/09/10 04:35:59;;;;;;;3.53;2.53;;;15.40;99.90;;;;;;5038369;28;20018;-79
2022/09/10 04:38:29;;;;;;;6.53;2.35;;;15.40;99.90;;;;;;5019626;28;20038;-83
2022/09/10 04:40:56;;;;;;;3.37;2.23;;;15.40;99.90;;;;;;5039390;28;20038;-86
2022/09/10 04:43:24;;;;;;;4.80;1.55;;;15.40;99.90;;;;;;5022109;28;20310;-78
2022/09/10 04:45:51;;;;;;;2.35;1.65;;;15.40;99.90;;;;;;5021813;28;20029;-81
2022/09/10 04:48:17;;;;;;;2.97;1.58;;;15.40;99.90;;;;;;5054332;28;20453;-87
2022/09/10 04:50:43;;;;;;;3.70;2.17;;;15.40;99.90;;;;;;5023893;28;20486;-80
2022/09/10 04:53:15;;;;;;;3.65;1.55;;;15.40;99.90;;;;;;5018540;28;20498;-78
2022/09/10 04:55:43;;;;;;;3.65;1.70;;;15.50;99.90;;;;;;5018679;28;20037;-83
2022/09/10 04:58:10;;;;;;;2.67;1.48;;;15.40;99.90;;;;;;5017075;28;20045;-86
2022/09/10 05:00:35;;;;;;;2.08;1.17;;;15.50;99.90;;;;;;5019618;28;20057;-77
2022/09/10 05:03:04;;;;;;;4.10;1.88;;;15.50;99.90;;;;;;5017156;28;20394;-85
2022/09/10 05:05:30;;;;;;;3.88;2.63;;;15.50;99.90;;;;;;5020061;28;20109;-86
2022/09/10 05:07:58;;;;;;;2.95;1.83;;;15.50;99.90;;;;;;5020378;28;20034;-85
2022/09/10 05:10:26;;;;;;;3.35;1.60;;;15.50;99.90;;;;;;5035817;28;20024;-79
2022/09/10 05:12:53;;;;;;;4.60;1.20;;;15.40;99.90;;;;;;5016847;28;20037;-79
2022/09/10 05:15:19;;;;;;;2.92;1.45;;;15.50;99.90;;;;;;5034700;28;20025;-85
2022/09/10 05:17:46;;;;;;;3.20;1.92;;;15.50;99.90;;;;;;5018949;28;20463;-77
2022/09/10 05:20:13;;;;;;;3.45;1.52;;;15.50;99.90;;;;;;5019808;28;20116;-85
2022/09/10 05:22:45;;;;;;;5.10;1.73;;;15.50;99.90;;;;;;5024487;28;20025;-85
2022/09/10 05:25:12;;;;;;;2.33;1.40;;;15.50;99.90;;;;;;5041836;28;20033;-78
2022/09/10 05:27:37;;;;;;;2.10;1.05;;;15.50;99.90;;;;;;5059172;28;20029;-83
2022/09/10 05:30:05;;;;;;;1.75;1.05;;;15.50;99.90;;;;;;5019751;28;20022;-81
2022/09/10 05:32:31;;;;;;;3.28;1.55;;;15.50;99.90;;;;;;5057769;28;20076;-80
2022/09/10 05:34:58;;;;;;;3.08;1.98;;;15.50;99.90;;;;;;5026816;28;20036;-86
2022/09/10 05:37:23;;;;;;;2.65;1.63;;;15.50;99.90;;;;;;5008876;28;20017;-78
2022/09/10 05:39:49;;;;;;;4.28;1.83;;;15.50;99.90;;;;;;5004849;28;20054;-80
2022/09/10 05:42:15;;;;;;;4.82;2.08;;;15.50;99.90;;;;;;4988903;28;20080;-78
2022/09/10 05:44:41;;;;;;;2.83;1.60;;;15.50;99.90;;;;;;5000642;28;20570;-84
2022/09/10 05:47:09;;;;;;;3.25;1.90;;;15.60;99.90;;;;;;5021081;28;20120;-80
2022/09/10 05:49:36;;;;;;;2.55;1.85;;;15.60;99.90;;;;;;5022007;28;20109;-77
2022/09/10 05:52:01;;;;;;;2.80;1.48;;;15.60;99.90;;;;;;4998193;28;20026;-76
2022/09/10 05:54:27;;;;;;;2.92;1.30;;;15.60;99.90;;;;;;5004923;28;20036;-82
2022/09/10 05:56:53;;;;;;;2.28;1.60;;;15.60;99.90;;;;;;5020067;28;20049;-85
2022/09/10 05:59:19;;;;;;;3.38;2.00;;;15.60;99.90;;;;;;5035464;28;20037;-80
2022/09/10 06:01:50;;;;;;;2.67;2.10;;;15.60;99.90;;;;;;4999180;28;20142;-82
2022/09/10 06:04:20;;;;;;;2.72;1.50;;;15.70;99.90;;;;;;5031532;28;20103;-80
2022/09/10 06:06:46;;;;;;;2.83;1.48;;;15.70;99.90;;;;;;5002041;28;20049;-82
2022/09/10 06:09:13;;;;;;;2.85;1.55;;;15.70;99.90;;;;;;4997452;28;20037;-76
2022/09/10 06:11:48;;;;;;;5.18;1.42;;;15.80;99.90;;;;;;4980695;28;20477;-82
2022/09/10 06:14:16;;;;;;;;;;;15.80;99.90;;;;;;4999370;28;20033;-85
2022/09/10 06:16:41;;;;;;;3.33;2.03;;;15.80;99.90;;;;;;5004090;28;19910;-77
2022/09/10 06:19:08;;;;;;;3.10;1.58;;;15.80;99.90;;;;;;5020284;28;20046;-86
2022/09/10 06:21:35;;;;;;;3.05;2.15;;;15.90;99.90;;;;;;5015004;28;20030;-76
2022/09/10 06:24:01;;;;;;;2.40;1.50;;;15.90;99.90;;;;;;5015741;28;20041;-80
2022/09/10 06:26:30;;;;;;;2.50;1.50;;;15.90;99.90;;;;;;5019473;28;20041;-83
2022/09/10 06:29:02;;;;;;;3.78;1.83;;;16.00;99.90;;;;;;5034937;28;20478;-77
2022/09/10 06:31:28;;;;;;;3.10;1.92;;;16.00;99.90;;;;;;5003642;28;20030;-82
2022/09/10 06:33:54;;;;;;;3.90;2.20;;;15.90;99.90;;;;;;5003684;28;20029;-90
2022/09/10 06:36:24;;;;;;;3.10;1.60;;;15.90;99.90;;;;;;4988944;28;20117;-82
2022/09/10 06:38:54;;;;;;;3.50;1.77;;;15.90;99.90;;;;;;4998964;28;20730;-83
2022/09/10 06:41:21;;;;;;;4.88;1.70;;;15.90;99.90;;;;;;4994096;28;20042;-89
2022/09/10 06:43:55;;;;;;;2.70;1.08;;;15.80;99.90;;;;;;5003374;28;20037;-79
2022/09/10 06:46:32;;;;;;;1.83;1.00;;;15.90;99.90;;;;;;5003946;28;20028;-87
2022/09/10 06:49:05;;;;;;;3.05;1.02;;;15.80;99.90;;;;;;5020251;28;20032;-80
2022/09/10 06:51:33;;;;;;;2.78;1.33;;;15.80;99.90;;;;;;5018877;28;20036;-81
2022/09/10 06:54:01;;;;;;;2.10;1.42;;;15.80;99.90;;;;;;4987793;28;20036;-85
2022/09/10 06:56:27;;;;;;;2.63;1.63;;;15.70;99.90;;;;;;5019742;28;20112;-78
2022/09/10 06:58:53;;;;;;;3.75;1.50;;;15.80;99.90;;;;;;4996986;28;20080;-81
2022/09/10 07:01:22;;;;;;;2.13;1.38;;;15.80;99.90;;;;;;4995845;28;20063;-82
2022/09/10 07:04:00;;;;;;;3.10;1.27;;;15.80;99.90;;;;;;5002426;28;20029;-80
2022/09/10 07:06:34;;;;;;;2.83;1.73;;;15.80;99.90;;;;;;4998553;28;20029;-83
2022/09/10 07:09:07;;;;;;;2.95;1.60;;;15.70;99.90;;;;;;4997535;28;20405;-82
2022/09/10 07:11:37;;;;;;;3.28;1.67;;;15.80;99.90;;;;;;5002544;28;20467;-84
2022/09/10 07:14:05;;;;;;;2.72;1.42;;;15.70;99.90;;;;;;4995358;28;20022;-82
2022/09/10 07:16:33;;;;;;;2.75;1.55;;;15.70;99.90;;;;;;4989717;28;20057;-77
2022/09/10 07:18:59;;;;;;;2.70;1.60;;;15.70;99.90;;;;;;4995678;28;20040;-83
2022/09/10 07:21:36;;;;;;;2.15;1.55;;;15.80;99.90;;;;;;4996750;28;20498;-81
2022/09/10 07:24:05;;;;;;;2.75;1.77;;;15.70;99.90;;;;;;4998141;28;20030;-80
2022/09/10 07:26:33;;;;;;;3.72;2.50;;;15.70;99.90;;;;;;5003685;28;20033;-80
2022/09/10 07:29:00;;;;;;;4.47;2.03;;;15.70;99.90;;;;;;4998798;28;20033;-79
2022/09/10 07:31:32;;;;;;;4.35;1.42;;;15.70;99.90;;;;;;5002799;28;20374;-84
2022/09/10 07:34:01;;;;;;;2.97;1.80;;;15.60;99.90;;;;;;4981758;28;20083;-83
2022/09/10 07:36:28;;;;;;;2.70;1.58;;;15.70;99.90;;;;;;4988213;28;20461;-79
2022/09/10 07:38:56;;;;;;;3.38;2.25;;;15.70;99.90;;;;;;4994590;28;20038;-78
2022/09/10 07:41:26;;;;;;;3.35;2.03;;;15.70;99.90;;;;;;4984419;28;20069;-83
2022/09/10 07:43:53;;;;;;;2.85;1.50;;;15.70;99.90;;;;;;5030996;28;20048;-82
2022/09/10 07:46:21;;;;;;;2.78;1.88;;;15.70;99.90;;;;;;4998349;28;20049;-79
2022/09/10 07:48:57;;;;;;;2.25;1.42;;;15.70;99.90;;;;;;4982691;28;20564;-84
2022/09/10 07:51:24;;;;;;;3.28;1.52;;;15.70;99.90;;;;;;5017934;28;20426;-80
2022/09/10 07:53:58;;;;;;;3.30;1.70;;;15.70;99.90;;;;;;4992495;28;20034;-83
2022/09/10 07:56:31;;;;;;;4.07;1.70;;;15.70;99.90;;;;;;4995800;28;20540;-79
2022/09/10 07:58:57;;;;;;;4.63;1.92;;;15.80;99.90;;;;;;4997102;28;20185;-79
2022/09/10 08:01:26;;;;;;;4.18;3.00;;;15.70;99.90;;;;;;4985715;28;20026;-80
2022/09/10 08:03:56;;;;;;;3.35;2.20;;;15.70;99.90;;;;;;5003039;28;20165;-91
2022/09/10 08:06:22;;;;;;;5.18;3.22;;;15.70;99.90;;;;;;5019172;28;20479;-92
2022/09/10 08:08:49;;;;;;;4.22;3.15;;;15.70;99.90;;;;;;5018131;28;20034;-86
2022/09/10 08:11:17;;;;;;;3.60;2.60;;;15.70;99.90;;;;;;5013911;28;20030;-83
2022/09/10 08:13:48;;;;;;;2.90;2.30;;;15.70;99.90;;;;;;5015046;28;20371;-85
2022/09/10 08:16:19;;;;;;;5.22;2.40;;;15.70;99.90;;;;;;4998129;28;20533;-83
2022/09/10 08:18:46;;;;;;;5.60;2.78;;;15.70;99.90;;;;;;4982854;28;20092;-81
2022/09/10 08:21:13;;;;;;;2.90;2.17;;;15.80;99.90;;;;;;5002939;28;20025;-82
2022/09/10 08:23:39;;;;;;;2.53;2.28;;;15.70;99.90;;;;;;5014604;28;20113;-81
2022/09/10 08:26:06;;;;;;;3.05;1.42;;;15.80;99.90;;;;;;4993721;28;20109;-81
2022/09/10 08:28:34;;;;;;;2.53;1.52;;;15.80;99.90;;;;;;5002587;28;20025;-86
2022/09/10 08:31:06;;;;;;;3.13;2.15;;;15.80;99.90;;;;;;5002881;28;20184;-78
2022/09/10 08:33:35;;;;;;;4.00;2.15;;;15.80;99.90;;;;;;5017470;28;20251;-86
2022/09/10 08:36:03;;;;;;;3.72;2.38;;;15.90;99.90;;;;;;5018094;28;20079;-87
2022/09/10 08:38:32;;;;;;;2.22;1.35;;;15.90;99.90;;;;;;5022050;28;20113;-86
2022/09/10 08:40:59;;;;;;;2.40;1.80;;;15.90;99.90;;;;;;5002813;28;20085;-84
2022/09/10 08:43:36;;;;;;;2.10;1.75;;;16.00;99.90;;;;;;4995820;28;20060;-81
2022/09/10 08:46:12;;;;;;;2.05;1.65;;;16.00;99.90;;;;;;5017159;28;20026;-80
2022/09/10 08:48:39;;;;;;;3.47;1.60;;;16.10;99.90;;;;;;5000909;28;20049;-90
2022/09/10 08:51:26;;;;;;;2.42;2.17;;;16.10;99.90;;;;;;5017838;28;20036;-92
2022/09/10 08:53:58;;;;;;;3.45;1.98;;;16.10;99.90;;;;;;5002207;28;20101;-77
2022/09/10 08:56:26;;;;;;;3.42;2.10;;;16.10;99.90;;;;;;5018751;28;20034;-82
2022/09/10 08:59:01;;;;;;;3.17;2.35;;;16.10;99.90;;;;;;4990794;28;20088;-84
2022/09/10 09:01:44;;;;;;;3.70;2.50;;;16.10;99.90;;;;;;4989488;28;20026;-83
2022/09/10 09:04:25;;;;;;;2.80;1.65;;;16.10;99.90;;;;;;5004455;28;20030;-87
2022/09/10 09:06:57;;;;;;;3.35;2.08;;;16.10;99.90;;;;;;5003241;28;20033;-75
2022/09/10 09:09:23;;;;;;;2.70;1.90;;;16.20;99.90;;;;;;4999967;28;20034;-86
2022/09/10 09:12:24;;;;;;;3.65;2.30;;;16.30;99.90;;;;;;5001539;28;20022;-84
2022/09/10 09:15:40;;;;;;;3.28;1.98;;;16.30;99.90;;;;;;5000900;28;20117;-89
2022/09/10 09:18:40;;;;;;;2.45;2.10;;;16.40;99.90;;;;;;4912109;29;20040;-86
2022/09/10 09:21:15;;;;;;;2.05;1.55;;;16.40;99.90;;;;;;4896541;29;20444;-85
2022/09/10 09:23:50;;;;;;;2.63;1.95;;;16.40;99.90;;;;;;4927226;29;20028;-83
2022/09/10 09:26:18;;;;;;;2.65;2.42;;;16.50;99.90;;;;;;4926183;29;20685;-84
2022/09/10 09:29:00;;;;;;;2.90;1.80;;;16.60;99.90;;;;;;4925156;29;20062;-78
2022/09/10 09:31:31;;;;;;;3.38;2.75;;;16.70;99.90;;;;;;4911108;29;20369;-78
2022/09/10 09:34:13;;;;;;;3.28;2.35;;;16.80;99.90;;;;;;4926581;29;20033;-80
2022/09/10 09:36:50;;;;;;;3.45;2.78;;;17.00;99.90;;;;;;4927419;29;20094;-85
2022/09/10 09:39:32;;;;;;;2.58;2.00;;;17.30;99.90;;;;;;4926000;29;20047;-80
2022/09/10 09:42:02;;;;;;;;;;;17.60;99.90;;;;;;4926492;29;20059;-79
2022/09/10 09:44:42;;;;;;;3.97;2.20;;;17.60;99.90;;;;;;4893248;29;20426;-86
2022/09/10 09:47:08;;;;;;;3.50;3.17;;;17.50;99.90;;;;;;4908425;29;20034;-77
2022/09/10 09:49:36;;;;;;;3.75;2.60;;;17.50;99.90;;;;;;4926170;29;20561;-76
2022/09/10 09:52:15;;;;;;;4.75;3.85;;;17.60;99.90;;;;;;4949067;28;20114;-83
2022/09/10 09:54:47;;;;;;;3.10;2.83;;;17.40;99.90;;;;;;4967499;28;20122;-86
2022/09/10 09:57:19;;;;;;;5.15;4.60;;;17.50;99.90;;;;;;4967152;28;20027;-89
2022/09/10 09:59:49;;;;;;;3.92;3.53;;;17.70;99.90;;;;;;4960679;28;20042;-87
2022/09/10 10:02:22;;;;;;;;;;;17.90;99.90;;;;;;4967775;28;20078;-78
2022/09/10 10:05:22;;;;;;;3.65;2.85;;;18.20;99.90;;;;;;4966460;28;19984;-82
2022/09/10 10:07:48;;;;;;;3.33;3.03;;;19.00;99.90;;;;;;4966150;28;20039;-77
2022/09/10 10:10:25;;;;;;;4.75;4.45;;;19.80;99.90;;;;;;4965536;28;20034;-77
2022/09/10 10:12:53;;;;;;;4.05;3.75;;;20.00;99.90;;;;;;4965414;28;20030;-77
2022/09/10 10:15:40;;;;;;;4.43;3.75;;;19.80;99.90;;;;;;4959574;28;20150;-83
2022/09/10 10:18:21;;;;;;;4.65;3.97;;;19.50;99.90;;;;;;4964528;28;20042;-79
2022/09/10 10:21:25;;;;;;;4.63;4.22;;;19.40;99.90;;;;;;4964231;28;20027;-80
2022/09/10 10:23:50;;;;;;;4.53;4.13;;;19.10;99.90;;;;;;4965105;28;20121;-81
2022/09/10 10:26:31;;;;;;;4.50;4.10;;;18.90;99.90;;;;;;4964349;28;20477;-82
2022/09/10 10:29:05;;;;;;;4.35;3.90;;;18.60;99.90;;;;;;4978782;28;20043;-77
2022/09/10 10:31:43;;;;;;;4.70;4.32;;;18.50;99.90;;;;;;4965015;28;20105;-84
2022/09/10 10:34:09;;;;;;;3.78;3.47;;;18.30;99.90;;;;;;4967093;28;20038;-81
2022/09/10 10:37:06;;;;;;;6.00;4.68;;;18.20;99.90;;;;;;4965321;28;20507;-85
2022/09/10 10:39:41;;;;;;;4.90;4.50;;;18.10;99.90;;;;;;4969940;28;20031;-84
2022/09/10 10:42:20;;;;;;;4.30;3.78;;;18.00;99.90;;;;;;5004547;28;20121;-82
2022/09/10 10:45:33;;;;;;;4.82;4.25;;;17.90;99.90;;;;;;5030865;28;20338;-85
2022/09/10 10:48:14;;;;;;;3.58;3.13;;;17.70;99.90;;;;;;4961370;28;20492;-84
2022/09/10 10:50:49;;;;;;;3.92;3.45;;;17.70;99.90;;;;;;4947937;28;20085;-81
2022/09/10 10:53:34;;;;;;;3.45;3.05;;;17.70;99.90;;;;;;4964081;28;20446;-88
2022/09/10 10:56:22;;;;;;;4.10;3.67;;;17.60;99.90;;;;;;4961734;28;20046;-85
2022/09/10 10:59:13;;;;;;;4.68;4.20;;;17.70;99.90;;;;;;4979888;28;20101;-89
2022/09/10 11:01:46;;;;;;;4.68;4.30;;;17.60;99.90;;;;;;4947964;28;20034;-81
2022/09/10 11:04:18;;;;;;;5.60;5.10;;;17.60;99.90;;;;;;4979473;28;20039;-84
2022/09/10 11:06:48;;;;;;;4.97;4.55;;;17.70;99.90;;;;;;4964090;28;20480;-81
2022/09/10 11:09:42;;;;;;;4.53;4.13;;;17.70;99.90;;;;;;4963978;28;20034;-83
2022/09/10 11:12:25;;;;;;;4.72;4.43;;;17.80;99.90;;;;;;4947992;28;20034;-78
2022/09/10 11:15:29;;;;;;;4.32;3.88;;;17.90;99.90;;;;;;4960238;28;20030;-87
2022/09/10 11:18:06;;;;;;;4.93;4.43;;;18.00;99.90;;;;;;4976198;28;20565;-85
2022/09/10 11:20:57;;;;;;;4.57;4.18;;;17.90;99.90;;;;;;4947742;28;20037;-85
2022/09/10 11:23:45;;;;;;;5.32;4.82;;;17.80;99.90;;;;;;4998642;28;20034;-82
2022/09/10 11:26:20;;;;;;;4.18;3.88;;;17.70;99.90;;;;;;5003578;28;20080;-77
2022/09/10 11:28:54;;;;;;;3.72;3.42;;;17.80;99.90;;;;;;5016250;28;20518;-78
2022/09/10 11:31:41;;;;;;;5.10;4.70;;;17.80;99.90;;;;;;4999458;28;20037;-77
2022/09/10 11:34:27;;;;;;;5.00;4.60;;;17.80;99.90;;;;;;5004414;28;20041;-85
2022/09/10 11:37:01;;;;;;;4.50;4.00;;;17.80;99.90;;;;;;5015223;28;20026;-84
2022/09/10 11:39:37;;;;;;;4.22;3.83;;;17.80;99.90;;;;;;5003100;28;20046;-83
2022/09/10 11:42:14;;;;;;;4.55;4.15;;;17.80;99.90;;;;;;4997121;28;20038;-84
2022/09/10 11:44:50;;;;;;;4.30;4.00;;;17.90;99.90;;;;;;5034306;28;20026;-79
2022/09/10 11:47:43;;;;;;;4.60;3.58;;;18.00;99.90;;;;;;5004189;28;20030;-80
2022/09/10 11:50:29;;;;;;;4.40;3.92;;;18.10;99.90;;;;;;5036523;28;20109;-81
2022/09/10 11:52:57;;;;;;;4.78;4.10;;;18.20;99.90;;;;;;4998567;28;20807;-82
2022/09/10 11:55:38;;;;;;;3.58;3.25;;;18.20;99.90;;;;;;5033358;28;20079;-75
2022/09/10 11:58:18;;;;;;;3.80;3.50;;;18.20;99.90;;;;;;4996805;28;20114;-80
2022/09/10 12:01:08;;;;;;;3.80;3.47;;;18.30;99.90;;;;;;4998981;28;20092;-82
2022/09/10 12:04:07;;;;;;;4.15;3.85;;;18.30;99.90;;;;;;5036728;28;20037;-81
2022/09/10 12:06:51;;;;;;;3.45;3.13;;;18.30;99.90;;;;;;5004781;28;20030;-79
2022/09/10 12:09:33;;;;;;;3.78;3.30;;;18.40;99.90;;;;;;5018999;28;20471;-79
2022/09/10 12:12:25;;;;;;;3.80;2.63;;;18.70;99.90;;;;;;5009797;28;20081;-76
2022/09/10 12:14:51;;;;;;;3.00;2.72;;;19.00;99.90;;;;;;5007738;28;20028;-78
2022/09/10 12:17:35;;;;;;;5.03;4.63;;;19.40;99.90;;;;;;5001589;28;20034;-81
2022/09/10 12:20:04;;;;;;;4.75;4.35;;;19.30;99.90;;;;;;5040451;28;20768;-84
2022/09/10 12:22:39;;;;;;;4.25;3.95;;;19.20;99.90;;;;;;5002583;28;20061;-76
2022/09/10 12:25:15;;;;;;;6.13;5.65;;;19.10;99.90;;;;;;5021815;28;20026;-77
2022/09/10 12:27:52;;;;;;;4.47;4.07;;;19.10;99.90;;;;;;5003793;28;20029;-78
2022/09/10 12:30:26;;;;;;;4.40;4.03;;;19.40;99.90;;;;;;5008102;28;20033;-84
2022/09/10 12:32:53;;;;;;;4.80;4.40;;;19.50;99.90;;;;;;5020775;28;20037;-77
2022/09/10 12:35:46;;;;;;;4.13;3.75;;;19.30;99.90;;;;;;5001707;28;20482;-76
2022/09/10 12:38:49;;;;;;;6.68;6.15;;;19.20;99.90;;;;;;5006293;28;20534;-86
2022/09/10 12:41:24;;;;;;;3.72;3.42;;;19.20;99.90;;;;;;5008279;28;20490;-76
2022/09/10 12:43:52;;;;;;;3.58;3.28;;;19.40;99.90;;;;;;5038758;28;20029;-78
2022/09/10 12:46:21;;;;;;;3.55;3.25;;;19.40;99.90;;;;;;5024249;28;20387;-79
2022/09/10 12:48:50;;;;;;;2.15;1.95;;;19.40;99.90;;;;;;5039255;28;20030;-76
2022/09/10 12:51:20;;;;;;;;;;;19.40;99.90;;;;;;5009442;28;20053;-77
2022/09/10 12:53:52;;;;;;;3.67;3.13;;;19.20;99.90;;;;;;5041115;28;19917;-85
2022/09/10 12:56:20;;;;;;;3.03;2.83;;;19.10;99.90;;;;;;5003129;28;20467;-83
2022/09/10 12:59:01;;;;;;;2.60;2.05;;;18.90;99.90;;;;;;5003389;28;20045;-81
2022/09/10 13:01:46;;;;;;;2.28;1.58;;;18.60;99.90;;;;;;5007508;28;20038;-79
2022/09/10 13:04:27;;;;;;;2.20;1.70;;;18.30;99.90;;;;;;5009316;28;20083;-78
2022/09/10 13:07:18;;;;;;;2.08;1.35;;;18.20;99.90;;;;;;5008698;28;20285;-78
2022/09/10 13:09:54;;;;;;;2.13;1.70;;;18.20;99.90;;;;;;5008064;28;20038;-81
2022/09/10 13:12:23;;;;;;;1.90;1.38;;;18.20;99.90;;;;;;4999264;28;20129;-82
2022/09/10 13:14:52;;;;;;;2.85;1.90;;;18.30;99.90;;;;;;5005073;28;20034;-81